createdAt,value
2019-04-05T00:00:38.114Z,3.80
2019-04-05T00:03:08.132Z,2.67
2019-04-05T00:05:38.050Z,3.70
2019-04-05T00:08:08.062Z,2.90
2019-04-05T00:10:38.899Z,4.35
2019-04-05T00:13:09.414Z,3.08
2019-04-05T00:15:39.347Z,2.22
2019-04-05T00:18:09.258Z,2.47
2019-04-05T00:20:39.583Z,4.22
2019-04-05T00:23:09.497Z,2.45
2019-04-05T00:25:39.514Z,4.60
2019-04-05T00:28:09.433Z,2.50
2019-04-05T00:30:39.344Z,2.75
2019-04-05T00:33:09.573Z,2.60
2019-04-05T00:35:39.583Z,3.70
2019-04-05T00:38:09.499Z,2.58
2019-04-05T00:40:39.414Z,2.80
2019-04-05T00:43:09.327Z,3.00
2019-04-05T00:45:39.145Z,2.58
2019-04-05T00:48:09.057Z,3.12
2019-04-05T00:50:39.379Z,2.95
2019-04-05T00:53:09.293Z,2.60
2019-04-05T00:55:39.925Z,2.83
2019-04-05T00:58:09.841Z,2.95
2019-04-05T01:00:39.995Z,2.90
2019-04-05T01:03:09.784Z,4.17
2019-04-05T01:05:39.788Z,2.75
2019-04-05T01:08:12.080Z,2.87
2019-04-05T01:10:41.463Z,5.08
2019-04-05T01:13:11.376Z,3.47
2019-04-05T01:15:41.466Z,3.42
2019-04-05T01:18:11.513Z,3.00
2019-04-05T01:20:43.476Z,3.02
2019-04-05T01:23:13.394Z,2.67
2019-04-05T01:25:43.305Z,2.70
2019-04-05T01:28:13.323Z,2.80
2019-04-05T01:30:43.544Z,2.72
2019-04-05T01:33:13.871Z,2.50
2019-04-05T01:35:43.989Z,3.08
2019-04-05T01:38:13.903Z,3.00
2019-04-05T01:40:43.819Z,2.77
2019-04-05T01:43:13.656Z,2.70
2019-04-05T01:45:53.679Z,2.42
2019-04-05T01:48:15.917Z,2.67
2019-04-05T01:50:45.832Z,3.08
2019-04-05T01:53:15.747Z,2.87
2019-04-05T01:55:45.661Z,2.95
2019-04-05T01:58:15.576Z,4.42
2019-04-05T02:00:45.490Z,2.58
2019-04-05T02:03:15.412Z,2.70
2019-04-05T02:05:45.321Z,2.62
2019-04-05T02:08:15.547Z,2.62
2019-04-05T02:10:45.457Z,3.42
2019-04-05T02:13:15.372Z,3.12
2019-04-05T02:15:45.207Z,2.30
2019-04-05T02:18:15.099Z,4.95
2019-04-05T02:20:45.014Z,2.70
2019-04-05T02:23:15.236Z,2.45
2019-04-05T02:25:45.153Z,2.27
2019-04-05T02:28:15.065Z,3.22
2019-04-05T02:30:45.084Z,2.30
2019-04-05T02:33:15.407Z,2.12
2019-04-05T02:35:45.322Z,2.27
2019-04-05T02:38:16.576Z,2.10
2019-04-05T02:40:46.399Z,2.15
2019-04-05T02:43:16.444Z,2.10
2019-04-05T02:45:46.725Z,1.62
2019-04-05T02:48:16.639Z,1.70
2019-04-05T02:50:48.802Z,2.35
2019-04-05T02:53:18.822Z,2.75
2019-04-05T02:55:48.642Z,1.90
2019-04-05T02:58:18.957Z,1.57
2019-04-05T03:00:49.181Z,2.02
2019-04-05T03:03:19.404Z,4.37
2019-04-05T03:05:49.317Z,2.37
2019-04-05T03:08:19.231Z,4.20
2019-04-05T03:11:03.973Z,1.50
2019-04-05T03:13:38.433Z,1.77
2019-04-05T03:16:14.271Z,2.45
2019-04-05T03:18:47.460Z,1.98
2019-04-05T03:21:17.380Z,1.77
2019-04-05T03:23:47.292Z,1.72
2019-04-05T03:26:18.722Z,1.67
2019-04-05T03:28:49.475Z,1.60
2019-04-05T03:31:24.606Z,1.50
2019-04-05T03:33:50.840Z,1.62
2019-04-05T03:36:20.755Z,2.15
2019-04-05T03:38:52.335Z,1.40
2019-04-05T03:41:23.875Z,1.52
2019-04-05T03:43:54.291Z,1.12
2019-04-05T03:46:24.121Z,1.35
2019-04-05T03:48:54.019Z,1.50
2019-04-05T03:51:25.670Z,1.45
2019-04-05T03:53:55.586Z,2.83
2019-04-05T03:56:27.209Z,1.30
2019-04-05T03:58:57.156Z,1.00
2019-04-05T04:01:27.071Z,1.95
2019-04-05T04:03:57.400Z,1.42
2019-04-05T04:06:28.213Z,1.27
2019-04-05T04:08:58.147Z,1.50
2019-04-05T04:11:28.062Z,2.65
2019-04-05T04:13:57.976Z,0.80
2019-04-05T04:16:28.201Z,2.10
2019-04-05T04:18:58.727Z,1.10
2019-04-05T04:21:34.482Z,2.22
2019-04-05T04:24:04.393Z,0.90
2019-04-05T04:26:34.522Z,1.07
2019-04-05T04:29:04.735Z,1.87
2019-04-05T04:31:34.647Z,2.87
2019-04-05T04:34:05.795Z,3.33
2019-04-05T04:36:35.709Z,2.25
2019-04-05T04:39:05.930Z,1.20
2019-04-05T04:41:35.853Z,1.10
2019-04-05T04:44:05.758Z,0.88
2019-04-05T04:46:35.676Z,1.05
2019-04-05T04:49:05.590Z,1.72
2019-04-05T04:51:35.502Z,2.35
2019-04-05T04:54:05.726Z,1.40
2019-04-05T04:56:35.640Z,2.87
2019-04-05T04:59:05.862Z,1.65
2019-04-05T05:01:35.776Z,2.83
2019-04-05T05:04:08.209Z,20.08
2019-04-05T05:06:37.251Z,15.08
2019-04-05T05:09:07.672Z,8.30
2019-04-05T05:11:37.995Z,1.30
2019-04-05T05:14:08.218Z,2.87
2019-04-05T05:16:38.133Z,5.50
2019-04-05T05:19:08.047Z,5.78
2019-04-05T05:21:37.967Z,4.45
2019-04-05T05:24:08.191Z,4.20
2019-04-05T05:26:38.034Z,6.05
2019-04-05T05:29:07.878Z,8.40
2019-04-05T05:31:37.714Z,4.70
2019-04-05T05:34:07.891Z,2.60
2019-04-05T05:36:38.782Z,4.50
2019-04-05T05:39:08.696Z,2.77
2019-04-05T05:41:38.611Z,4.87
2019-04-05T05:44:08.528Z,3.20
2019-04-05T05:46:38.645Z,3.87
2019-04-05T05:49:08.559Z,4.20
2019-04-05T05:51:38.475Z,4.87
2019-04-05T05:54:08.389Z,2.67
2019-04-05T05:56:38.611Z,2.65
2019-04-05T05:59:08.936Z,2.33
2019-04-05T06:01:38.851Z,2.95
2019-04-05T06:04:08.764Z,2.00
2019-04-05T06:06:39.601Z,2.10
2019-04-05T06:09:09.520Z,4.10
2019-04-05T06:11:39.431Z,0.75
2019-04-05T06:14:09.653Z,1.65
2019-04-05T06:16:46.416Z,3.77
2019-04-05T06:19:11.123Z,2.83
2019-04-05T06:21:41.037Z,2.87
2019-04-05T06:24:11.154Z,0.72
2019-04-05T06:26:41.054Z,1.57
2019-04-05T06:29:11.086Z,1.10
2019-04-05T06:31:41.103Z,1.80
2019-04-05T06:34:11.019Z,1.75
2019-04-05T06:36:40.843Z,0.80
2019-04-05T06:39:10.747Z,2.83
2019-04-05T06:41:42.694Z,2.45
2019-04-05T06:44:12.627Z,2.05
2019-04-05T06:46:42.539Z,1.75
2019-04-05T06:49:12.760Z,1.52
2019-04-05T06:51:42.675Z,0.75
2019-04-05T06:54:12.592Z,0.80
2019-04-05T06:56:42.812Z,3.90
2019-04-05T06:59:13.648Z,2.05
2019-04-05T07:01:43.767Z,1.42
2019-04-05T07:04:13.682Z,1.72
2019-04-05T07:06:43.597Z,1.05
2019-04-05T07:09:13.921Z,1.95
2019-04-05T07:11:43.841Z,3.12
2019-04-05T07:14:13.955Z,1.62
2019-04-05T07:16:43.870Z,1.00
2019-04-05T07:19:14.194Z,1.22
2019-04-05T07:21:44.111Z,1.15
2019-04-05T07:24:14.024Z,1.37
2019-04-05T07:26:43.939Z,3.40
2019-04-05T07:29:13.909Z,1.82
2019-04-05T07:31:43.871Z,1.15
2019-04-05T07:34:13.794Z,2.22
2019-04-05T07:36:43.701Z,1.10
2019-04-05T07:39:13.615Z,1.02
2019-04-05T07:41:43.531Z,3.67
2019-04-05T07:44:13.546Z,20.40
2019-04-05T07:46:46.351Z,1.98
2019-04-05T07:49:15.016Z,1.47
2019-04-05T07:51:45.239Z,1.80
2019-04-05T07:54:15.158Z,2.52
2019-04-05T07:56:46.370Z,3.42
2019-04-05T07:59:17.439Z,4.27
2019-04-05T08:01:47.355Z,1.20
2019-04-05T08:07:24.149Z,2.37
2019-04-05T08:09:54.585Z,1.98
2019-04-05T08:12:24.885Z,3.02
2019-04-05T08:14:54.918Z,1.05
2019-04-05T08:17:25.243Z,1.55
2019-04-05T08:19:55.202Z,1.50
2019-04-05T08:22:25.383Z,1.45
2019-04-05T08:24:55.294Z,0.72
2019-04-05T08:27:25.211Z,0.72
2019-04-05T08:29:55.581Z,0.57
2019-04-05T08:32:25.655Z,1.35
2019-04-05T08:34:55.567Z,2.10
2019-04-05T08:37:25.466Z,0.85
2019-04-05T08:39:55.397Z,1.20
2019-04-05T08:42:25.315Z,1.82
2019-04-05T08:44:55.231Z,0.82
2019-04-05T08:47:25.098Z,2.65
2019-04-05T08:49:55.056Z,1.00
2019-04-05T08:52:27.037Z,4.50
2019-04-05T08:54:56.526Z,2.05
2019-04-05T08:57:26.541Z,3.85
2019-04-05T08:59:56.455Z,4.45
2019-04-05T09:02:26.370Z,3.10
2019-04-05T09:04:56.286Z,4.30
2019-04-05T09:07:26.199Z,2.15
2019-04-05T09:09:56.114Z,1.55
2019-04-05T09:12:26.029Z,3.15
2019-04-05T09:14:55.944Z,4.30
2019-04-05T09:17:25.858Z,1.82
2019-04-05T09:19:55.774Z,4.17
2019-04-05T09:22:25.689Z,3.25
2019-04-05T09:24:55.605Z,2.70
2019-04-05T09:27:25.929Z,2.05
2019-04-05T09:29:55.842Z,1.75
2019-04-05T09:32:25.757Z,1.12
2019-04-05T09:34:55.580Z,3.27
2019-04-05T09:37:25.485Z,7.75
2019-04-05T09:39:55.399Z,6.53
2019-04-05T09:42:25.262Z,3.62
2019-04-05T09:44:55.228Z,3.47
2019-04-05T09:47:25.145Z,6.20
2019-04-05T09:49:55.058Z,7.03
2019-04-05T09:52:24.973Z,5.30
2019-04-05T09:54:54.887Z,6.90
2019-04-05T09:57:24.801Z,9.18
2019-04-05T09:59:54.716Z,7.15
2019-04-05T10:02:24.939Z,7.05
2019-04-05T10:04:55.263Z,8.18
2019-04-05T10:07:25.178Z,5.85
2019-04-05T10:09:55.092Z,11.63
2019-04-05T10:12:25.314Z,6.62
2019-04-05T10:14:55.742Z,4.97
2019-04-05T10:17:25.657Z,7.37
2019-04-05T10:19:55.571Z,5.95
2019-04-05T10:22:25.485Z,10.72
2019-04-05T10:24:55.502Z,8.05
2019-04-05T10:27:25.418Z,6.47
2019-04-05T10:29:55.334Z,6.37
2019-04-05T10:32:25.253Z,3.70
2019-04-05T10:34:55.677Z,5.50
2019-04-05T10:37:25.590Z,6.30
2019-04-05T10:39:55.502Z,14.53
2019-04-05T10:42:31.754Z,7.42
2019-04-05T10:45:01.700Z,5.97
2019-04-05T10:47:32.006Z,10.08
2019-04-05T10:50:03.295Z,11.80
2019-04-05T10:52:33.474Z,7.65
2019-04-05T10:55:03.593Z,10.93
2019-04-05T10:57:34.484Z,9.85
2019-04-05T11:00:09.875Z,10.18
2019-04-05T11:02:39.792Z,10.03
2019-04-05T11:05:10.113Z,8.90
2019-04-05T11:07:40.034Z,8.38
2019-04-05T11:10:09.946Z,5.67
2019-04-05T11:12:39.778Z,4.17
2019-04-05T11:15:10.270Z,10.43
2019-04-05T11:17:42.397Z,10.95
2019-04-05T11:20:21.076Z,12.70
2019-04-05T11:22:46.379Z,7.72
2019-04-05T11:25:15.055Z,8.28
2019-04-05T11:27:44.979Z,8.88
2019-04-05T11:30:14.896Z,8.95
2019-04-05T11:32:44.713Z,6.22
2019-04-05T11:35:15.115Z,6.87
2019-04-05T11:37:45.051Z,7.35
2019-04-05T11:40:14.962Z,4.28
2019-04-05T11:42:44.877Z,7.15
2019-04-05T11:45:14.792Z,5.42
2019-04-05T11:47:44.706Z,5.08
2019-04-05T11:50:16.052Z,5.12
2019-04-05T11:52:45.969Z,7.97
2019-04-05T11:55:18.241Z,4.22
2019-04-05T11:57:47.744Z,6.80
2019-04-05T12:00:24.930Z,5.90
2019-04-05T12:03:05.202Z,5.33
2019-04-05T12:05:35.908Z,3.42
2019-04-05T12:08:05.750Z,6.67
2019-04-05T12:10:35.652Z,5.28
2019-04-05T12:13:08.332Z,4.65
2019-04-05T12:15:38.243Z,3.83
2019-04-05T12:18:08.157Z,4.25
2019-04-05T12:20:49.102Z,2.70
2019-04-05T12:23:09.627Z,3.40
2019-04-05T12:25:39.541Z,2.67
2019-04-05T12:28:10.767Z,3.17
2019-04-05T12:30:42.442Z,3.05
2019-04-05T12:33:14.532Z,5.20
2019-04-05T12:35:44.006Z,4.08
2019-04-05T12:38:28.005Z,4.33
2019-04-05T12:40:47.119Z,4.72
2019-04-05T12:43:17.261Z,5.15
2019-04-05T12:45:47.153Z,5.92
2019-04-05T12:48:16.987Z,3.58
2019-04-05T12:59:10.794Z,4.92
2019-04-05T13:01:40.707Z,1.87
2019-04-05T13:04:10.635Z,2.65
2019-04-05T13:06:42.283Z,3.15
2019-04-05T13:09:13.295Z,2.87
2019-04-05T13:11:43.232Z,1.50
2019-04-05T13:14:13.659Z,2.62
2019-04-05T13:16:43.574Z,2.05
2019-04-05T13:19:13.487Z,4.08
2019-04-05T13:21:44.325Z,1.27
2019-04-05T13:24:14.151Z,3.75
2019-04-05T13:26:43.970Z,2.85
2019-04-05T13:29:17.640Z,2.25
2019-04-05T13:31:49.195Z,1.25
2019-04-05T13:34:19.123Z,2.27
2019-04-05T13:36:49.037Z,2.20
2019-04-05T13:39:18.929Z,3.05
2019-04-05T13:41:48.868Z,3.75
2019-04-05T13:44:18.783Z,5.22
2019-04-05T13:46:48.700Z,2.90
2019-04-05T13:49:18.613Z,1.70
2019-04-05T13:51:48.631Z,2.70
2019-04-05T13:54:18.555Z,2.60
2019-04-05T13:56:48.459Z,3.33
2019-04-05T13:59:18.381Z,2.58
2019-04-05T14:01:50.892Z,1.57
2019-04-05T14:04:21.049Z,2.65
2019-04-05T14:06:53.592Z,3.85
2019-04-05T14:09:24.310Z,3.83
2019-04-05T14:11:54.194Z,3.72
2019-04-05T14:14:24.121Z,1.05
2019-04-05T14:16:54.252Z,3.37
2019-04-05T14:19:24.673Z,3.10
2019-04-05T14:22:07.511Z,2.80
2019-04-05T14:24:26.123Z,2.80
2019-04-05T14:26:56.038Z,1.10
2019-04-05T14:29:25.953Z,2.25
2019-04-05T14:31:55.867Z,2.05
2019-04-05T14:34:25.782Z,2.17
2019-04-05T14:36:55.697Z,3.27
2019-04-05T14:39:25.715Z,3.80
2019-04-05T14:41:55.633Z,5.17
2019-04-05T14:44:25.559Z,8.20
2019-04-05T14:46:55.851Z,6.70
2019-04-05T14:49:30.255Z,4.33
2019-04-05T14:52:00.804Z,7.78
2019-04-05T14:54:30.811Z,4.78
2019-04-05T14:57:05.520Z,9.75
2019-04-05T14:59:32.980Z,10.53
2019-04-05T15:02:03.141Z,7.78
2019-04-05T15:04:33.484Z,11.22
2019-04-05T15:07:03.382Z,14.18
2019-04-05T15:09:33.301Z,8.88
2019-04-05T15:12:03.819Z,12.95
2019-04-05T15:14:33.943Z,7.10
2019-04-05T15:17:03.861Z,11.18
2019-04-05T15:19:33.770Z,8.83
2019-04-05T15:22:06.170Z,10.95
2019-04-05T15:24:35.751Z,9.33
2019-04-05T15:27:05.856Z,5.50
2019-04-05T15:29:35.786Z,8.30
2019-04-05T15:32:07.031Z,5.92
2019-04-05T15:34:36.947Z,9.58
2019-04-05T15:37:06.862Z,8.68
2019-04-05T15:39:36.776Z,10.70
2019-04-05T15:42:06.696Z,10.88
2019-04-05T15:44:39.065Z,8.68
2019-04-05T15:47:08.978Z,7.93
2019-04-05T15:49:38.892Z,6.17
2019-04-05T15:52:18.193Z,15.35
2019-04-05T15:54:43.054Z,5.90
2019-04-05T15:57:11.913Z,8.85
2019-04-05T15:59:41.829Z,9.58
2019-04-05T16:02:11.743Z,10.28
2019-04-05T16:04:41.659Z,7.35
2019-04-05T16:07:11.573Z,9.50
2019-04-05T16:09:41.590Z,8.43
2019-04-05T16:12:11.608Z,8.75
2019-04-05T16:14:41.521Z,7.33
2019-04-05T16:17:12.596Z,9.35
2019-04-05T16:19:42.797Z,5.67
2019-04-05T16:22:12.700Z,11.00
2019-04-05T16:24:42.621Z,12.55
2019-04-05T16:27:12.530Z,5.58
2019-04-05T16:29:42.444Z,7.33
2019-04-05T16:32:12.358Z,7.05
2019-04-05T16:34:42.273Z,8.00
2019-04-05T16:37:12.188Z,9.63
2019-04-05T16:39:42.924Z,4.90
2019-04-05T16:42:13.144Z,9.33
2019-04-05T16:44:43.058Z,5.42
2019-04-05T16:47:12.974Z,8.43
2019-04-05T16:49:42.889Z,7.80
2019-04-05T16:52:12.909Z,6.92
2019-04-05T16:54:42.821Z,6.20
2019-04-05T16:57:12.735Z,4.03
2019-04-05T16:59:42.653Z,5.65
2019-04-05T17:02:12.667Z,6.95
2019-04-05T17:04:42.670Z,8.28
2019-04-05T17:07:12.704Z,9.15
2019-04-05T17:09:42.623Z,8.05
2019-04-05T17:12:12.530Z,10.90
2019-04-05T17:14:42.446Z,12.68
2019-04-05T17:17:12.364Z,7.75
2019-04-05T17:19:42.377Z,13.22
2019-04-05T17:22:12.293Z,16.93
2019-04-05T17:24:42.207Z,9.98
2019-04-05T17:27:12.122Z,9.75
2019-04-05T17:29:42.139Z,8.00
2019-04-05T17:32:12.053Z,17.07
2019-04-05T17:34:42.069Z,8.83
2019-04-05T17:37:11.986Z,5.70
2019-04-05T17:39:41.901Z,11.20
2019-04-05T17:42:11.822Z,8.35
2019-04-05T17:44:41.832Z,6.08
2019-04-05T17:47:11.747Z,8.08
2019-04-05T17:49:41.662Z,4.35
2019-04-05T17:52:11.581Z,7.97
2019-04-05T17:54:41.493Z,7.20
2019-04-05T17:57:11.512Z,8.15
2019-04-05T17:59:41.833Z,7.60
2019-04-05T18:02:12.629Z,7.90
2019-04-05T18:04:42.584Z,5.05
2019-04-05T18:07:12.504Z,5.72
2019-04-05T18:09:42.516Z,5.85
2019-04-05T18:12:12.430Z,7.17
2019-04-05T18:14:42.346Z,15.58
2019-04-05T18:17:12.262Z,7.10
2019-04-05T18:19:42.175Z,5.08
2019-04-05T18:22:15.163Z,8.80
2019-04-05T18:24:45.182Z,7.78
2019-04-05T18:27:15.094Z,7.55
2019-04-05T18:29:45.010Z,6.25
2019-04-05T18:32:14.924Z,10.35
2019-04-05T18:34:45.251Z,8.10
2019-04-05T18:37:15.162Z,7.45
2019-04-05T18:39:45.077Z,7.72
2019-04-05T18:42:14.999Z,7.15
2019-04-05T18:44:45.829Z,14.25
2019-04-05T18:47:22.699Z,8.73
2019-04-05T18:50:02.965Z,8.43
2019-04-05T18:52:27.718Z,12.68
2019-04-05T18:54:58.541Z,9.45
2019-04-05T18:57:28.455Z,7.37
2019-04-05T18:59:58.731Z,8.43
2019-04-05T19:02:28.648Z,4.92
2019-04-05T19:04:58.563Z,6.50
2019-04-05T19:07:28.477Z,9.20
2019-04-05T19:09:58.395Z,9.15
2019-04-05T19:12:28.324Z,11.80
2019-04-05T19:15:12.132Z,7.40
2019-04-05T19:17:42.090Z,8.28
2019-04-05T19:20:12.390Z,11.05
2019-04-05T19:22:42.318Z,10.72
2019-04-05T19:25:12.219Z,12.60
2019-04-05T19:27:42.132Z,14.50
2019-04-05T19:50:27.648Z,11.80
2019-04-05T19:52:57.972Z,12.23
2019-04-05T19:55:27.895Z,10.13
2019-04-05T19:57:58.312Z,7.12
2019-04-05T20:00:28.230Z,12.53
2019-04-05T20:02:58.149Z,12.43
2019-04-05T20:05:28.160Z,13.05
2019-04-05T20:07:58.076Z,11.30
2019-04-05T20:10:27.993Z,11.70
2019-04-05T20:12:57.905Z,14.75
2019-04-05T20:15:27.819Z,12.88
2019-04-05T20:17:57.837Z,20.72
2019-04-05T20:20:27.961Z,15.43
2019-04-05T20:22:57.974Z,16.27
2019-04-05T20:25:27.888Z,14.13
2019-04-05T20:27:58.679Z,15.53
2019-04-05T20:30:28.640Z,17.92
2019-04-05T20:32:58.862Z,12.15
2019-04-05T20:36:01.111Z,11.80
2019-04-05T20:38:31.460Z,15.20
2019-04-05T20:41:01.486Z,9.73
2019-04-05T20:43:31.312Z,9.63
2019-04-05T20:46:01.494Z,13.38
2019-04-05T20:48:31.426Z,11.30
2019-04-05T20:51:01.459Z,11.68
2019-04-05T20:53:31.360Z,9.98
2019-04-05T20:56:01.364Z,15.58
2019-04-05T20:58:31.291Z,12.10
2019-04-05T21:01:02.028Z,8.65
2019-04-05T21:03:33.067Z,10.23
2019-04-05T21:06:02.924Z,12.20
2019-04-05T21:08:32.771Z,11.57
2019-04-05T21:11:02.661Z,12.35
2019-04-05T21:13:32.631Z,14.98
2019-04-05T21:16:02.467Z,9.55
2019-04-05T21:18:32.310Z,11.63
2019-04-05T21:21:02.116Z,7.33
2019-04-05T21:23:32.244Z,13.38
2019-04-05T21:26:02.063Z,9.65
2019-04-05T21:28:31.876Z,7.22
2019-04-05T21:31:02.304Z,9.80
2019-04-05T21:33:32.220Z,8.28
2019-04-05T21:36:02.472Z,7.58
2019-04-05T21:38:32.364Z,7.72
2019-04-05T21:41:02.302Z,9.23
2019-04-05T21:43:32.123Z,6.33
2019-04-05T21:46:02.029Z,6.00
2019-04-05T21:48:32.219Z,7.72
2019-04-05T21:51:02.143Z,9.48
2019-04-05T21:53:32.079Z,7.67
2019-04-05T21:56:02.274Z,8.78
2019-04-05T21:58:32.524Z,8.48
2019-04-05T22:01:07.099Z,7.25
2019-04-05T22:03:37.135Z,3.90
2019-04-05T22:06:07.592Z,6.10
2019-04-05T22:08:37.479Z,4.55
2019-04-05T22:11:07.425Z,8.98
2019-04-05T22:13:39.391Z,4.37
2019-04-05T22:16:09.303Z,7.22
2019-04-05T22:21:28.997Z,3.10
2019-04-05T22:23:58.838Z,5.72
2019-04-05T22:26:29.212Z,4.55
2019-04-05T22:28:59.851Z,5.55
2019-04-05T22:31:29.783Z,6.15
2019-04-05T22:33:59.699Z,6.22
2019-04-05T22:36:29.920Z,6.20
2019-04-05T22:38:59.813Z,5.45
2019-04-05T22:41:29.749Z,8.20
2019-04-05T22:43:59.751Z,4.22
2019-04-05T22:46:29.887Z,4.15
2019-04-05T22:48:59.730Z,4.25
2019-04-05T22:51:29.600Z,7.33
2019-04-05T22:53:59.834Z,6.08
2019-04-05T22:56:30.040Z,6.75
2019-04-05T22:58:59.976Z,5.50
2019-04-05T23:01:29.890Z,3.10
2019-04-05T23:04:00.112Z,7.03
2019-04-05T23:06:30.023Z,5.55
2019-04-05T23:09:00.866Z,4.55
2019-04-05T23:11:32.515Z,3.62
2019-04-05T23:14:02.429Z,3.87
2019-04-05T23:16:32.244Z,3.87
2019-04-05T23:19:02.158Z,4.45
2019-04-05T23:21:32.073Z,3.80
2019-04-05T23:24:01.988Z,5.55
2019-04-05T23:26:31.901Z,4.85
2019-04-05T23:29:01.816Z,3.55
2019-04-05T23:31:31.935Z,3.37
2019-04-05T23:34:01.828Z,4.45
2019-04-05T23:36:31.765Z,3.90
2019-04-05T23:39:01.782Z,5.25
2019-04-05T23:41:32.903Z,3.22
2019-04-05T23:44:02.841Z,4.03
2019-04-05T23:46:32.756Z,4.47
2019-04-05T23:49:02.670Z,4.97
2019-04-05T23:51:32.585Z,4.75
2019-04-05T23:54:02.500Z,4.00
2019-04-05T23:56:32.417Z,4.62
2019-04-05T23:59:02.339Z,3.72
